Terminal Aerodrome Forecast
Issued by NWS Portland, OR

Home | Current Version | Previous Version | Text Only | Print | Product List | Glossary On
Versions: 1 2 3 4 5 6 7 8 9 10 11 12 13 14 15 16 17
000
FTUS46 KPQR 052324
TAFSLE
TAF
KSLE 052324Z 0600/0624 01006KT P6SM SCT040 BKN250
     FM060400 34006KT P6SM SCT150
     FM062000 01010G20KT P6SM SKC=

USA.gov is the U.S. government's official web portal to all federal, state and local government web resources and services.